Time;durP1;ratioP1;P1;durP2;ratioP2;P2;SDS_P1;SDS_P2;PMS_P1;PMS_P2;Temp;Humidity;BMP_temperature;BMP_pressure;BME280_temperature;BME280_humidity;BME280_pressure;Samples;Min_cycle;Max_cycle;Signal;HPM_P1;HPM_P2
2022/10/03 00:01:16;;;;;;;3.70;1.00;;;11.50;93.20;;;;;;5009562;28;20249;-61
2022/10/03 00:03:54;;;;;;;3.20;0.77;;;11.40;93.20;;;;;;4976880;28;20238;-62
2022/10/03 00:06:58;;;;;;;3.47;0.77;;;11.30;93.20;;;;;;5009077;28;20181;-62
2022/10/03 00:09:26;;;;;;;3.60;0.87;;;11.30;92.90;;;;;;5014699;28;20184;-62
2022/10/03 00:11:52;;;;;;;2.53;0.80;;;11.30;93.60;;;;;;4980727;28;20221;-60
2022/10/03 00:14:23;;;;;;;2.10;0.50;;;11.30;93.40;;;;;;5015053;28;20286;-62
2022/10/03 00:17:01;;;;;;;2.03;0.50;;;11.30;93.20;;;;;;4984930;28;20264;-62
2022/10/03 00:19:35;;;;;;;4.80;0.97;;;11.30;93.50;;;;;;5016830;28;20208;-62
2022/10/03 00:22:14;;;;;;;2.60;0.50;;;11.30;93.50;;;;;;5014682;28;20189;-62
2022/10/03 00:24:55;;;;;;;1.70;0.60;;;11.30;93.50;;;;;;5016060;28;20181;-62
2022/10/03 00:27:47;;;;;;;1.60;0.73;;;11.20;93.20;;;;;;5011385;28;20207;-62
2022/10/03 00:30:18;;;;;;;1.33;0.50;;;11.20;93.40;;;;;;5022548;28;20184;-62
2022/10/03 00:32:48;;;;;;;1.60;0.53;;;11.10;93.30;;;;;;4985123;28;20207;-62
2022/10/03 00:35:53;;;;;;;0.63;0.43;;;11.10;93.20;;;;;;4979980;28;20229;-61
2022/10/03 00:38:48;;;;;;;2.93;0.67;;;11.10;93.30;;;;;;4987151;28;20271;-61
2022/10/03 00:41:39;;;;;;;3.40;0.70;;;11.10;93.30;;;;;;4979455;28;20181;-63
2022/10/03 00:44:42;;;;;;;1.83;0.50;;;11.10;93.40;;;;;;5008596;28;20177;-61
2022/10/03 00:47:36;;;;;;;2.03;0.70;;;11.10;93.40;;;;;;4987502;28;20219;-61
2022/10/03 00:50:24;;;;;;;0.80;0.50;;;11.20;93.50;;;;;;5016521;28;20191;-62
2022/10/03 00:53:10;;;;;;;0.80;0.63;;;11.10;93.30;;;;;;5025984;28;20192;-60
2022/10/03 00:55:41;;;;;;;0.70;0.70;;;10.90;92.70;;;;;;4980966;28;20213;-61
2022/10/03 00:58:15;;;;;;;2.20;0.70;;;10.90;93.20;;;;;;5008720;28;20217;-62
2022/10/03 01:00:49;;;;;;;2.30;0.70;;;10.90;93.30;;;;;;5016464;28;20173;-61
2022/10/03 01:03:30;;;;;;;3.37;0.90;;;10.80;92.70;;;;;;4986806;28;20203;-61
2022/10/03 01:06:25;;;;;;;0.87;0.60;;;10.80;93.00;;;;;;5009194;28;20184;-62
2022/10/03 01:09:10;;;;;;;4.07;0.50;;;10.80;93.30;;;;;;4978411;28;20201;-61
2022/10/03 01:12:17;;;;;;;2.80;0.80;;;10.80;93.30;;;;;;5015068;28;20193;-61
2022/10/03 01:15:10;;;;;;;3.97;1.10;;;10.80;93.30;;;;;;4981237;28;20189;-61
2022/10/03 01:18:13;;;;;;;4.43;0.77;;;10.80;93.60;;;;;;5010987;28;20201;-61
2022/10/03 01:20:45;;;;;;;5.10;1.13;;;10.70;92.80;;;;;;5014701;28;20185;-61
2022/10/03 01:23:36;;;;;;;3.40;1.10;;;10.60;93.10;;;;;;5021753;28;20252;-62
2022/10/03 01:26:23;;;;;;;4.20;1.33;;;10.70;93.30;;;;;;4983239;28;20189;-62
2022/10/03 01:32:03;;;;;;;0.70;0.60;;;10.70;93.20;;;;;;4984183;28;20239;-61
2022/10/03 01:34:58;;;;;;;1.93;0.63;;;10.70;93.20;;;;;;4981217;28;20231;-61
2022/10/03 01:37:39;;;;;;;0.77;0.60;;;10.70;93.10;;;;;;4990995;28;20204;-61
2022/10/03 01:40:31;;;;;;;0.57;0.57;;;10.70;93.00;;;;;;5007243;28;20209;-62
2022/10/03 01:43:13;;;;;;;4.77;0.93;;;10.60;92.90;;;;;;4978528;28;20199;-62
2022/10/03 01:46:04;;;;;;;2.47;0.60;;;10.50;92.80;;;;;;5026512;28;20188;-60
2022/10/03 01:48:51;;;;;;;2.00;0.70;;;10.60;93.10;;;;;;4996876;28;20196;-62
2022/10/03 01:51:41;;;;;;;1.70;0.60;;;10.60;93.10;;;;;;5007600;28;20189;-62
2022/10/03 01:54:28;;;;;;;4.23;1.30;;;10.50;92.80;;;;;;4985763;28;20192;-62
2022/10/03 01:57:02;;;;;;;1.13;0.50;;;10.60;93.20;;;;;;4978543;28;20271;-61
2022/10/03 01:59:37;;;;;;;0.97;0.90;;;10.60;93.30;;;;;;4984463;28;20291;-63
2022/10/03 02:02:08;;;;;;;2.10;0.60;;;10.60;93.00;;;;;;5013025;28;20181;-61
2022/10/03 02:05:05;;;;;;;3.40;0.70;;;10.60;93.10;;;;;;4977135;28;20224;-61
2022/10/03 02:07:53;;;;;;;1.73;0.70;;;10.60;93.10;;;;;;5015377;28;20180;-62
2022/10/03 02:10:39;;;;;;;0.50;0.50;;;10.40;92.80;;;;;;5006952;28;20271;-61
2022/10/03 02:13:08;;;;;;;3.43;0.93;;;10.40;92.80;;;;;;4978696;28;20181;-63
2022/10/03 02:15:53;;;;;;;0.60;0.60;;;10.40;92.70;;;;;;5012598;28;20189;-62
2022/10/03 02:18:28;;;;;;;3.53;0.90;;;10.40;92.90;;;;;;5019759;28;20231;-62
2022/10/03 02:21:09;;;;;;;3.07;0.70;;;10.30;92.80;;;;;;5012580;28;20199;-60
2022/10/03 02:23:35;;;;;;;1.83;0.80;;;10.30;93.00;;;;;;4980136;28;20315;-60
2022/10/03 02:26:19;;;;;;;3.37;0.90;;;10.40;93.10;;;;;;4978229;28;20236;-61
2022/10/03 02:29:13;;;;;;;1.00;0.90;;;10.30;93.00;;;;;;5007300;28;20212;-60
2022/10/03 02:31:57;;;;;;;4.27;0.90;;;10.20;92.80;;;;;;5009439;28;20193;-61
2022/10/03 02:34:47;;;;;;;1.50;1.00;;;10.30;93.40;;;;;;5018291;28;20251;-60
2022/10/03 02:37:37;;;;;;;3.63;0.80;;;10.30;92.80;;;;;;4984627;28;20264;-62
2022/10/03 02:40:12;;;;;;;2.63;0.50;;;10.20;92.90;;;;;;5020430;28;20208;-62
2022/10/03 02:43:04;;;;;;;5.20;0.80;;;10.30;93.20;;;;;;5006635;28;20275;-62
2022/10/03 02:45:58;;;;;;;2.00;0.60;;;10.30;93.50;;;;;;5008868;28;20185;-63
2022/10/03 02:49:01;;;;;;;0.57;0.50;;;10.30;93.30;;;;;;5011033;28;20197;-62
2022/10/03 02:52:00;;;;;;;2.00;0.70;;;10.40;93.40;;;;;;5018399;28;20188;-62
2022/10/03 02:54:41;;;;;;;4.93;0.83;;;10.30;93.30;;;;;;5006775;28;20192;-62
2022/10/03 02:57:41;;;;;;;0.97;0.70;;;10.30;93.40;;;;;;5019602;28;20228;-62
2022/10/03 03:00:11;;;;;;;0.97;0.70;;;10.40;93.50;;;;;;5017618;28;20212;-62
2022/10/03 03:03:05;;;;;;;3.60;1.10;;;10.40;93.40;;;;;;5023525;28;20212;-62
2022/10/03 03:05:49;;;;;;;2.40;0.67;;;10.40;93.40;;;;;;5029724;28;20218;-62
2022/10/03 03:09:09;;;;;;;2.00;0.90;;;10.40;93.30;;;;;;5018766;28;20196;-62
2022/10/03 03:12:13;;;;;;;1.07;0.70;;;10.50;93.70;;;;;;4973103;28;20193;-61
2022/10/03 03:15:16;;;;;;;1.50;0.60;;;10.60;93.40;;;;;;4988266;28;20200;-62
2022/10/03 03:17:55;;;;;;;0.77;0.60;;;10.60;93.50;;;;;;5018891;28;20243;-62
2022/10/03 03:20:58;;;;;;;5.67;0.90;;;10.60;93.50;;;;;;4991300;28;20188;-62
2022/10/03 03:23:36;;;;;;;2.77;0.83;;;10.70;93.50;;;;;;5016977;28;20215;-62
2022/10/03 03:26:26;;;;;;;2.90;0.67;;;10.60;93.50;;;;;;5029394;28;20193;-62
2022/10/03 03:29:12;;;;;;;4.50;1.20;;;10.70;93.60;;;;;;5010031;28;20275;-62
2022/10/03 03:32:13;;;;;;;0.67;0.63;;;10.70;93.50;;;;;;4979530;28;20180;-62
2022/10/03 03:35:03;;;;;;;2.30;0.70;;;10.70;93.60;;;;;;4984507;28;20191;-62
2022/10/03 03:38:16;;;;;;;7.33;0.80;;;10.80;93.70;;;;;;5010122;28;20193;-62
2022/10/03 03:41:00;;;;;;;0.70;0.70;;;10.80;93.60;;;;;;5029071;28;20195;-60
2022/10/03 03:43:54;;;;;;;1.47;0.70;;;10.80;93.30;;;;;;5027415;28;20236;-61
2022/10/03 03:46:41;;;;;;;0.80;0.80;;;10.80;93.40;;;;;;5009287;28;20217;-61
2022/10/03 03:49:28;;;;;;;2.13;0.73;;;10.80;93.50;;;;;;5005950;28;20197;-61
2022/10/03 03:51:59;;;;;;;1.00;0.90;;;10.80;93.50;;;;;;5021717;28;20193;-60
2022/10/03 03:54:33;;;;;;;2.13;0.80;;;10.80;93.50;;;;;;4989043;28;20181;-61
2022/10/03 03:57:25;;;;;;;3.53;0.80;;;10.80;93.50;;;;;;5009782;28;20184;-61
2022/10/03 04:00:06;;;;;;;1.63;0.80;;;10.80;93.60;;;;;;5017169;28;20213;-61
2022/10/03 04:02:38;;;;;;;0.70;0.60;;;10.80;93.60;;;;;;4992590;28;20194;-61
2022/10/03 04:05:37;;;;;;;2.27;0.80;;;10.90;93.50;;;;;;4982159;28;20192;-62
2022/10/03 04:08:33;;;;;;;4.87;0.80;;;10.90;93.50;;;;;;4989412;28;20184;-62
2022/10/03 04:11:19;;;;;;;1.87;0.63;;;10.80;93.40;;;;;;5011852;28;20183;-61
2022/10/03 04:13:56;;;;;;;1.30;0.67;;;10.90;93.50;;;;;;5016216;28;20187;-60
2022/10/03 04:19:55;;;;;;;1.30;0.90;;;10.80;93.30;;;;;;4982113;28;20235;-62
2022/10/03 04:22:33;;;;;;;1.20;0.87;;;10.80;93.40;;;;;;5015183;28;20492;-62
2022/10/03 04:25:25;;;;;;;2.50;0.90;;;10.80;93.40;;;;;;5010787;28;20192;-61
2022/10/03 04:28:17;;;;;;;1.17;0.70;;;10.80;93.50;;;;;;5012455;28;20189;-60
2022/10/03 04:31:05;;;;;;;0.90;0.90;;;10.80;93.10;;;;;;5017023;28;20185;-60
2022/10/03 04:33:37;;;;;;;3.67;0.80;;;10.80;93.50;;;;;;5008831;28;20235;-61
2022/10/03 04:36:08;;;;;;;2.57;0.70;;;10.80;93.50;;;;;;5014847;28;20233;-61
2022/10/03 04:38:57;;;;;;;0.80;0.63;;;10.80;93.50;;;;;;5010504;28;20212;-60
2022/10/03 04:41:43;;;;;;;2.93;1.00;;;10.70;93.00;;;;;;4986817;28;20191;-61
2022/10/03 04:44:43;;;;;;;1.30;0.80;;;10.70;93.60;;;;;;4989299;28;20210;-62
2022/10/03 04:47:26;;;;;;;1.47;1.20;;;10.80;93.60;;;;;;5015445;28;20203;-61
2022/10/03 04:50:18;;;;;;;2.00;0.93;;;10.80;93.50;;;;;;4981490;28;20285;-60
2022/10/03 04:52:49;;;;;;;0.73;0.73;;;10.80;93.60;;;;;;4985248;28;20181;-59
2022/10/03 04:55:53;;;;;;;0.90;0.87;;;10.80;93.60;;;;;;4979839;28;20189;-61
2022/10/03 04:58:32;;;;;;;0.80;0.70;;;10.90;93.50;;;;;;4975728;28;20200;-62
2022/10/03 05:01:26;;;;;;;3.57;0.97;;;10.90;93.40;;;;;;4985243;28;20180;-61
2022/10/03 05:04:52;;;;;;;2.47;1.00;;;10.80;93.40;;;;;;5014873;28;20177;-62
2022/10/03 05:07:42;;;;;;;1.80;0.80;;;10.90;93.80;;;;;;5005562;28;20194;-61
2022/10/03 05:10:20;;;;;;;3.50;0.83;;;10.80;93.30;;;;;;5010679;28;20184;-61
2022/10/03 05:13:04;;;;;;;2.90;1.20;;;10.90;93.40;;;;;;4980384;28;20286;-61
2022/10/03 05:15:41;;;;;;;1.10;0.90;;;10.90;93.40;;;;;;5012956;28;20184;-61
2022/10/03 05:18:18;;;;;;;2.63;1.10;;;10.90;93.40;;;;;;4978205;28;20189;-60
2022/10/03 05:20:47;;;;;;;1.47;1.37;;;11.00;93.60;;;;;;4979094;28;20219;-61
2022/10/03 05:23:44;;;;;;;1.70;1.30;;;11.00;93.50;;;;;;5007627;28;20176;-63
2022/10/03 05:26:28;;;;;;;3.07;1.40;;;11.00;93.60;;;;;;4975337;28;20197;-61
2022/10/03 05:29:09;;;;;;;4.57;1.50;;;11.00;93.20;;;;;;4975654;28;20196;-61
2022/10/03 05:31:47;;;;;;;2.03;1.50;;;11.00;93.40;;;;;;4988081;28;20221;-61
2022/10/03 05:34:33;;;;;;;2.50;1.70;;;11.00;93.20;;;;;;5011532;28;20181;-60
2022/10/03 05:37:24;;;;;;;2.37;1.50;;;11.00;93.20;;;;;;5010108;28;20234;-61
2022/10/03 05:40:03;;;;;;;5.27;2.50;;;11.00;93.30;;;;;;5026753;28;20211;-60
2022/10/03 05:42:41;;;;;;;5.17;3.07;;;11.00;93.40;;;;;;4975473;28;20235;-62
2022/10/03 05:45:23;;;;;;;4.80;2.70;;;11.10;93.30;;;;;;4989428;28;20290;-61
2022/10/03 05:48:16;;;;;;;3.47;2.30;;;11.10;93.10;;;;;;5006792;28;20188;-61
2022/10/03 05:51:21;;;;;;;3.83;1.87;;;11.00;93.10;;;;;;5015294;28;20251;-61
2022/10/03 05:54:18;;;;;;;3.07;2.40;;;11.10;93.40;;;;;;4991224;28;20245;-61
2022/10/03 05:57:29;;;;;;;3.37;1.70;;;11.10;93.10;;;;;;5009292;28;20189;-61
2022/10/03 06:00:16;;;;;;;1.80;1.60;;;11.10;93.10;;;;;;5012962;28;20217;-61
2022/10/03 06:02:52;;;;;;;1.77;1.40;;;11.00;93.00;;;;;;5023903;28;20191;-61
2022/10/03 06:05:24;;;;;;;4.07;1.80;;;11.00;93.10;;;;;;5026312;28;20242;-61
2022/10/03 06:08:27;;;;;;;5.10;1.43;;;11.00;93.30;;;;;;5016892;28;20272;-61
2022/10/03 06:11:15;;;;;;;2.17;1.80;;;11.20;93.50;;;;;;4985379;28;20192;-61
2022/10/03 06:14:11;;;;;;;7.27;2.13;;;11.20;93.50;;;;;;4989687;28;20256;-61
2022/10/03 06:16:40;;;;;;;2.17;1.80;;;11.20;93.40;;;;;;5017490;28;20197;-61
2022/10/03 06:19:13;;;;;;;1.70;1.60;;;11.10;93.10;;;;;;4980730;28;20200;-61
2022/10/03 06:21:47;;;;;;;2.67;1.67;;;11.20;93.60;;;;;;4991990;28;20187;-61
2022/10/03 06:24:59;;;;;;;2.50;1.83;;;11.30;93.50;;;;;;5007413;28;20180;-61
2022/10/03 06:28:04;;;;;;;4.23;1.50;;;11.30;93.40;;;;;;5015444;28;20188;-61
2022/10/03 06:30:57;;;;;;;4.63;1.60;;;11.30;93.50;;;;;;4991214;28;20188;-61
2022/10/03 06:34:00;;;;;;;6.13;1.70;;;11.30;93.40;;;;;;4987346;28;20217;-61
2022/10/03 06:36:38;;;;;;;5.70;2.10;;;11.40;93.50;;;;;;5004265;28;20562;-60
2022/10/03 06:39:41;;;;;;;5.47;1.87;;;11.30;93.20;;;;;;4982849;28;20196;-61
2022/10/03 06:42:28;;;;;;;5.70;2.20;;;11.40;93.30;;;;;;4988008;28;20247;-61
2022/10/03 06:45:08;;;;;;;3.23;1.73;;;11.40;93.30;;;;;;4983003;28;20208;-61
2022/10/03 06:47:56;;;;;;;1.73;1.60;;;11.50;93.30;;;;;;5020096;28;20227;-60
2022/10/03 06:50:34;;;;;;;3.03;2.00;;;11.50;93.30;;;;;;4987607;28;20268;-60
2022/10/03 06:53:00;;;;;;;4.20;2.43;;;11.50;93.20;;;;;;4979826;28;20183;-60
2022/10/03 06:55:59;;;;;;;3.17;2.17;;;11.50;93.10;;;;;;5026693;28;20192;-61
2022/10/03 06:58:49;;;;;;;5.10;2.30;;;11.50;93.20;;;;;;5014709;28;20208;-60
2022/10/03 07:02:16;;;;;;;7.50;2.40;;;11.60;93.10;;;;;;5018464;28;20193;-60
2022/10/03 07:05:16;;;;;;;5.67;2.50;;;11.60;93.10;;;;;;4972128;28;20200;-59
2022/10/03 07:08:23;;;;;;;6.30;3.17;;;11.60;92.90;;;;;;5019831;28;20180;-59
2022/10/03 07:11:25;;;;;;;3.47;2.73;;;11.60;92.60;;;;;;4995668;28;20185;-61
2022/10/03 07:13:55;;;;;;;4.07;1.90;;;11.60;92.70;;;;;;5014187;28;20180;-61
2022/10/03 07:17:00;;;;;;;4.50;2.43;;;11.50;92.40;;;;;;5019473;28;20192;-61
2022/10/03 07:19:52;;;;;;;5.80;2.20;;;11.60;92.70;;;;;;5025525;28;20231;-60
2022/10/03 07:23:08;;;;;;;3.27;2.33;;;11.70;93.00;;;;;;5008499;28;20189;-61
2022/10/03 07:26:02;;;;;;;5.20;2.30;;;11.80;93.00;;;;;;4963651;28;20216;-60
2022/10/03 07:29:00;;;;;;;4.37;2.17;;;11.80;92.90;;;;;;4989690;28;20303;-59
2022/10/03 07:31:45;;;;;;;3.83;2.20;;;11.80;92.90;;;;;;4993072;28;20196;-59
2022/10/03 07:34:35;;;;;;;7.23;2.80;;;11.90;92.40;;;;;;4994553;28;20197;-61
2022/10/03 07:40:32;;;;;;;2.87;2.07;;;12.00;92.70;;;;;;4995858;28;20215;-60
2022/10/03 07:43:31;;;;;;;5.67;2.20;;;12.00;92.40;;;;;;4985413;28;20202;-60
2022/10/03 07:46:34;;;;;;;7.23;2.43;;;12.00;92.50;;;;;;5023280;28;20176;-61
2022/10/03 07:49:08;;;;;;;5.97;2.33;;;12.10;92.70;;;;;;5026616;28;20192;-61
2022/10/03 07:51:49;;;;;;;5.50;2.10;;;12.10;92.60;;;;;;4993073;28;20188;-61
2022/10/03 07:54:40;;;;;;;4.03;1.97;;;12.10;92.50;;;;;;4999034;28;20425;-62
2022/10/03 07:57:29;;;;;;;4.17;1.90;;;12.20;92.70;;;;;;4989105;28;20193;-61
2022/10/03 08:00:18;;;;;;;5.03;2.43;;;12.20;92.70;;;;;;4993909;28;20227;-61
2022/10/03 08:03:05;;;;;;;4.03;1.97;;;12.20;92.60;;;;;;4975359;28;20184;-61
2022/10/03 08:05:48;;;;;;;3.00;2.20;;;12.20;92.70;;;;;;4976191;28;20181;-60
2022/10/03 08:08:51;;;;;;;5.00;3.20;;;12.30;92.70;;;;;;5026066;28;20180;-60
2022/10/03 08:11:32;;;;;;;2.93;2.40;;;12.20;91.40;;;;;;5015932;28;20193;-61
2022/10/03 08:14:35;;;;;;;3.80;2.03;;;12.20;91.70;;;;;;4980671;28;20217;-60
2022/10/03 08:17:24;;;;;;;2.17;1.50;;;12.30;91.90;;;;;;5012316;28;20180;-60
2022/10/03 08:20:17;;;;;;;6.30;1.90;;;12.30;92.10;;;;;;4981641;28;20233;-60
2022/10/03 08:23:01;;;;;;;3.13;1.70;;;12.30;92.20;;;;;;5016778;28;20188;-60
2022/10/03 08:25:32;;;;;;;4.13;2.00;;;12.40;92.20;;;;;;4992220;28;20275;-60
2022/10/03 08:28:16;;;;;;;3.10;1.67;;;12.40;92.10;;;;;;4981084;28;20309;-60
2022/10/03 08:31:19;;;;;;;1.73;1.47;;;12.50;92.30;;;;;;4986809;28;20191;-60
2022/10/03 08:34:09;;;;;;;5.57;1.80;;;12.50;92.30;;;;;;5006417;28;20189;-60
2022/10/03 08:37:07;;;;;;;4.37;2.37;;;12.50;92.30;;;;;;5019063;28;20232;-61
2022/10/03 08:39:44;;;;;;;3.83;1.80;;;12.50;92.40;;;;;;4983674;28;20221;-60
2022/10/03 08:42:16;;;;;;;4.27;2.30;;;12.60;92.30;;;;;;4982952;28;20192;-60
2022/10/03 08:45:11;;;;;;;4.60;2.07;;;12.60;92.40;;;;;;5021147;28;20247;-60
2022/10/03 08:47:55;;;;;;;3.83;2.27;;;12.60;92.50;;;;;;5006289;28;20201;-60
2022/10/03 08:50:52;;;;;;;2.83;2.13;;;12.60;92.60;;;;;;5017295;28;20188;-60
2022/10/03 08:53:50;;;;;;;3.70;2.70;;;12.70;92.80;;;;;;4984884;28;20216;-60
2022/10/03 08:56:44;;;;;;;3.50;2.60;;;12.70;92.90;;;;;;4986720;28;20286;-60
2022/10/03 08:59:28;;;;;;;5.97;2.73;;;12.70;92.90;;;;;;5020006;28;20239;-60
2022/10/03 09:01:59;;;;;;;5.63;3.20;;;12.80;93.10;;;;;;4997006;28;20192;-60
2022/10/03 09:05:02;;;;;;;5.60;3.00;;;12.90;93.20;;;;;;5011991;28;20188;-60
2022/10/03 09:07:37;;;;;;;5.00;2.53;;;13.00;93.40;;;;;;5010282;28;20264;-60
2022/10/03 09:10:24;;;;;;;3.03;2.73;;;13.10;93.40;;;;;;5005064;28;20283;-61
2022/10/03 09:13:15;;;;;;;4.40;2.60;;;13.20;93.50;;;;;;5012963;28;20188;-61
2022/10/03 09:16:09;;;;;;;6.10;2.83;;;13.30;93.60;;;;;;4990712;28;20280;-61
2022/10/03 09:18:41;;;;;;;4.53;2.30;;;13.40;93.60;;;;;;5009648;28;20227;-61
2022/10/03 09:21:45;;;;;;;3.80;2.67;;;13.40;93.50;;;;;;4990213;28;20189;-60
2022/10/03 09:24:35;;;;;;;3.93;2.20;;;13.50;93.50;;;;;;4977801;28;20195;-61
2022/10/03 09:27:19;;;;;;;3.80;2.20;;;13.60;93.50;;;;;;5006876;28;20181;-61
2022/10/03 09:30:10;;;;;;;4.53;2.40;;;13.60;93.40;;;;;;5007041;28;20224;-62
2022/10/03 09:33:13;;;;;;;2.93;1.97;;;13.70;92.60;;;;;;5018906;28;20208;-61
2022/10/03 09:36:03;;;;;;;3.43;2.33;;;13.70;93.00;;;;;;5009095;28;20228;-61
2022/10/03 09:38:37;;;;;;;2.80;1.17;;;13.70;93.00;;;;;;5019813;28;20199;-61
2022/10/03 09:41:32;;;;;;;1.50;1.23;;;13.70;89.60;;;;;;4987157;28;20244;-61
2022/10/03 09:44:00;;;;;;;3.50;1.53;;;13.80;90.30;;;;;;5008872;28;20197;-60
2022/10/03 09:46:44;;;;;;;5.50;1.57;;;13.70;88.30;;;;;;5013989;28;20193;-61
2022/10/03 09:49:20;;;;;;;2.80;1.77;;;13.80;87.50;;;;;;5008106;28;20189;-61
2022/10/03 09:52:21;;;;;;;3.30;1.60;;;13.70;88.10;;;;;;5016988;28;20254;-60
2022/10/03 09:55:18;;;;;;;2.40;1.53;;;13.80;88.30;;;;;;4989040;28;20191;-61
2022/10/03 09:58:14;;;;;;;0.80;0.80;;;13.80;88.50;;;;;;5024867;28;20223;-60
2022/10/03 10:01:19;;;;;;;1.03;0.90;;;13.70;82.70;;;;;;4992986;28;20272;-60
2022/10/03 10:04:19;;;;;;;2.03;0.90;;;13.60;82.60;;;;;;4988693;28;20192;-60
2022/10/03 10:07:04;;;;;;;1.13;0.97;;;13.80;76.00;;;;;;5009849;28;20200;-61
2022/10/03 10:09:35;;;;;;;1.60;0.90;;;13.80;78.60;;;;;;5014500;28;20184;-60
2022/10/03 10:12:18;;;;;;;2.57;1.00;;;13.80;81.70;;;;;;5012345;28;20197;-61
2022/10/03 10:15:03;;;;;;;0.70;0.70;;;13.80;73.70;;;;;;5003614;28;20196;-59
2022/10/03 10:17:59;;;;;;;0.80;0.70;;;14.10;68.80;;;;;;5010625;28;20343;-59
2022/10/03 10:20:40;;;;;;;3.30;0.87;;;14.00;72.50;;;;;;5001105;28;20243;-61
2022/10/03 10:23:36;;;;;;;2.43;0.80;;;14.00;73.90;;;;;;5016372;28;20213;-61
2022/10/03 10:26:24;;;;;;;1.80;0.80;;;14.30;71.70;;;;;;5021408;28;20294;-61
2022/10/03 10:29:01;;;;;;;2.93;0.83;;;14.30;73.20;;;;;;5006908;28;20185;-60
2022/10/03 10:31:42;;;;;;;0.70;0.70;;;14.30;69.40;;;;;;5019984;28;20243;-59
2022/10/03 10:34:14;;;;;;;1.43;0.93;;;14.20;72.20;;;;;;5022738;28;20207;-59
2022/10/03 10:37:29;;;;;;;3.10;0.73;;;14.20;74.60;;;;;;5010553;28;20224;-59
2022/10/03 10:40:19;;;;;;;2.20;0.70;;;14.40;63.80;;;;;;5023209;28;20232;-61
2022/10/03 10:43:22;;;;;;;0.80;0.53;;;14.40;67.70;;;;;;5011718;28;20188;-59
2022/10/03 10:46:23;;;;;;;0.60;0.60;;;14.40;67.40;;;;;;5015718;28;20181;-61
2022/10/03 10:49:37;;;;;;;1.87;0.80;;;14.60;66.30;;;;;;5024336;28;20266;-59
2022/10/03 10:52:21;;;;;;;0.90;0.63;;;14.70;67.30;;;;;;4984645;28;20200;-61
2022/10/03 10:54:56;;;;;;;0.83;0.70;;;14.80;61.70;;;;;;5020793;28;20189;-59
2022/10/03 10:58:13;;;;;;;2.93;0.73;;;14.90;63.80;;;;;;5021669;28;20189;-61
2022/10/03 11:01:10;;;;;;;1.90;0.90;;;15.00;63.50;;;;;;4995876;28;20228;-60
2022/10/03 11:04:14;;;;;;;2.73;0.80;;;14.90;63.50;;;;;;4981814;28;20204;-60
2022/10/03 11:07:10;;;;;;;0.50;0.50;;;14.90;62.50;;;;;;5010547;28;20276;-61
2022/10/03 11:10:00;;;;;;;0.97;0.73;;;15.00;60.20;;;;;;5014242;28;20187;-61
2022/10/03 11:13:19;;;;;;;0.83;0.70;;;15.00;63.40;;;;;;5008480;28;20233;-61
2022/10/03 11:16:21;;;;;;;1.83;0.70;;;15.10;64.00;;;;;;5010620;28;20221;-60
2022/10/03 11:19:15;;;;;;;2.27;0.83;;;15.50;62.20;;;;;;5011534;28;20205;-60
2022/10/03 11:22:18;;;;;;;0.57;0.53;;;15.40;63.20;;;;;;5015367;28;20196;-60
2022/10/03 11:25:31;;;;;;;0.57;0.57;;;15.40;62.30;;;;;;5014454;28;20184;-60
2022/10/03 11:28:28;;;;;;;0.60;0.60;;;15.70;60.10;;;;;;5019045;28;20197;-60
2022/10/03 11:31:11;;;;;;;2.20;0.70;;;15.70;55.40;;;;;;5022389;28;20191;-60
2022/10/03 11:33:55;;;;;;;0.50;0.50;;;15.60;62.10;;;;;;5030477;28;20180;-59
2022/10/03 11:36:58;;;;;;;4.03;0.70;;;15.70;61.80;;;;;;4991610;28;20233;-59
2022/10/03 11:39:52;;;;;;;0.77;0.77;;;15.80;59.40;;;;;;5012122;28;20213;-60
2022/10/03 11:42:32;;;;;;;2.03;0.60;;;16.10;60.70;;;;;;4997784;28;20197;-60
2022/10/03 11:45:04;;;;;;;1.30;0.70;;;16.10;57.50;;;;;;5018249;28;20177;-59
2022/10/03 11:47:53;;;;;;;1.37;0.67;;;16.00;58.60;;;;;;4991427;28;20182;-59
2022/10/03 11:50:40;;;;;;;1.03;0.70;;;16.00;54.70;;;;;;5002367;28;20193;-61
2022/10/03 11:53:27;;;;;;;3.83;0.50;;;15.80;59.20;;;;;;4980154;28;20189;-62
2022/10/03 11:56:19;;;;;;;0.83;0.60;;;15.70;59.70;;;;;;4975916;28;20212;-62
2022/10/03 11:58:51;;;;;;;0.80;0.60;;;15.70;57.10;;;;;;4990928;28;20212;-62
2022/10/03 12:01:35;;;;;;;0.60;0.53;;;15.80;58.20;;;;;;5027218;28;20185;-61
2022/10/03 12:04:15;;;;;;;3.23;0.67;;;15.80;55.10;;;;;;4982460;28;20199;-61
2022/10/03 12:10:04;;;;;;;1.53;0.80;;;15.80;56.40;;;;;;4986918;28;20288;-60
2022/10/03 12:12:42;;;;;;;1.90;0.90;;;15.80;56.00;;;;;;4983620;28;20232;-60
2022/10/03 12:15:27;;;;;;;1.07;0.70;;;15.70;58.90;;;;;;4988466;28;20200;-60
2022/10/03 12:18:27;;;;;;;2.30;0.80;;;15.80;57.90;;;;;;5016803;28;20184;-61
2022/10/03 12:21:10;;;;;;;0.60;0.60;;;15.80;54.60;;;;;;5007534;28;20209;-60
2022/10/03 12:23:54;;;;;;;1.83;0.83;;;15.70;55.70;;;;;;4980724;28;20238;-59
2022/10/03 12:27:04;;;;;;;2.00;1.17;;;15.80;51.90;;;;;;5018743;28;20212;-59
2022/10/03 12:29:35;;;;;;;1.07;0.80;;;15.70;54.80;;;;;;4981656;28;20200;-60
2022/10/03 12:32:04;;;;;;;0.87;0.70;;;15.70;56.90;;;;;;4992610;28;20243;-60
2022/10/03 12:34:38;;;;;;;1.10;0.67;;;15.60;57.10;;;;;;4991833;28;20220;-60
2022/10/03 12:37:38;;;;;;;1.87;0.57;;;15.70;57.70;;;;;;5015327;28;20232;-60
2022/10/03 12:40:26;;;;;;;0.73;0.60;;;15.80;58.30;;;;;;5015105;28;20201;-61
2022/10/03 12:42:57;;;;;;;0.83;0.50;;;16.10;56.30;;;;;;4977008;28;20232;-59
2022/10/03 12:45:31;;;;;;;0.80;0.80;;;16.30;51.70;;;;;;5023194;28;20195;-60
2022/10/03 12:48:04;;;;;;;0.77;0.57;;;16.50;50.40;;;;;;4983342;28;20198;-60
2022/10/03 12:50:55;;;;;;;1.00;0.87;;;16.60;53.50;;;;;;5023001;28;20177;-60
2022/10/03 12:53:29;;;;;;;3.13;0.90;;;16.80;54.30;;;;;;5010716;28;20268;-59
2022/10/03 12:56:31;;;;;;;2.17;0.50;;;17.30;50.50;;;;;;4980952;28;20192;-61
2022/10/03 12:59:34;;;;;;;0.70;0.63;;;17.70;48.40;;;;;;5023700;28;20257;-60
2022/10/03 13:02:24;;;;;;;1.10;0.70;;;17.70;48.90;;;;;;4988497;28;20212;-60
2022/10/03 13:05:09;;;;;;;0.70;0.50;;;17.90;50.40;;;;;;5012377;28;20192;-60
2022/10/03 13:07:51;;;;;;;1.20;0.73;;;18.30;49.90;;;;;;5010418;28;20181;-62
2022/10/03 13:10:30;;;;;;;0.47;0.47;;;18.70;48.00;;;;;;4977506;28;20192;-60
2022/10/03 13:13:25;;;;;;;1.80;0.60;;;19.10;47.90;;;;;;5008151;28;20243;-61
2022/10/03 13:15:56;;;;;;;0.70;0.70;;;19.30;49.20;;;;;;4971965;28;20256;-59
2022/10/03 13:18:29;;;;;;;0.70;0.70;;;19.30;47.50;;;;;;4984350;28;20212;-59
2022/10/03 13:21:07;;;;;;;0.60;0.60;;;19.40;46.80;;;;;;5023809;28;20202;-60
2022/10/03 13:23:52;;;;;;;2.40;0.80;;;19.60;47.40;;;;;;4980227;28;20248;-61
2022/10/03 13:26:26;;;;;;;1.80;0.90;;;19.70;47.50;;;;;;5022671;28;20215;-59
2022/10/03 13:29:24;;;;;;;1.30;0.87;;;19.60;47.00;;;;;;4986519;28;20270;-61
2022/10/03 13:32:05;;;;;;;2.03;0.80;;;19.70;46.50;;;;;;4991614;28;20184;-60
2022/10/03 13:34:58;;;;;;;2.20;0.70;;;20.10;48.90;;;;;;5018719;28;20185;-60
2022/10/03 13:37:38;;;;;;;7.20;2.07;;;20.10;46.00;;;;;;5005402;28;20235;-59
2022/10/03 13:40:09;;;;;;;2.83;0.87;;;20.60;45.20;;;;;;4993933;28;20217;-59
2022/10/03 13:42:52;;;;;;;4.83;0.97;;;21.30;46.70;;;;;;4977552;28;20228;-59
2022/10/03 13:45:24;;;;;;;1.73;0.70;;;21.80;45.20;;;;;;4982450;28;20270;-58
2022/10/03 13:47:56;;;;;;;2.63;0.80;;;21.70;43.80;;;;;;4987219;28;20184;-59
2022/10/03 13:50:27;;;;;;;2.10;0.87;;;21.60;43.30;;;;;;4986407;28;20201;-60
2022/10/03 13:53:10;;;;;;;2.50;1.10;;;21.90;42.10;;;;;;5018806;28;20188;-59
2022/10/03 13:55:45;;;;;;;2.13;0.70;;;22.00;41.40;;;;;;4977665;28;20185;-59
2022/10/03 13:58:26;;;;;;;1.80;0.90;;;21.90;41.90;;;;;;5005840;28;20196;-59
2022/10/03 14:01:33;;;;;;;0.77;0.70;;;21.70;41.50;;;;;;5016745;28;20210;-61
2022/10/03 14:04:27;;;;;;;2.63;0.80;;;20.90;43.60;;;;;;4973654;28;20200;-60
2022/10/03 14:07:00;;;;;;;1.23;0.80;;;20.10;42.90;;;;;;5009943;28;20192;-60
2022/10/03 14:09:28;;;;;;;2.93;0.90;;;20.10;46.60;;;;;;4986384;28;20192;-60
2022/10/03 14:12:16;;;;;;;1.07;0.77;;;20.50;45.20;;;;;;5016885;28;20216;-61
2022/10/03 14:15:16;;;;;;;2.70;1.07;;;21.20;41.50;;;;;;4991699;28;20248;-61
2022/10/03 14:17:45;;;;;;;1.93;0.87;;;22.00;42.20;;;;;;4986402;28;20180;-61
2022/10/03 14:20:29;;;;;;;1.50;0.70;;;22.80;40.10;;;;;;4995128;28;20200;-61
2022/10/03 14:23:01;;;;;;;0.90;0.63;;;23.00;37.30;;;;;;5013096;28;20296;-60
2022/10/03 14:25:39;;;;;;;2.13;1.03;;;23.70;37.40;;;;;;5022014;28;20193;-60
2022/10/03 14:28:33;;;;;;;1.07;0.80;;;24.00;38.00;;;;;;4975713;28;20191;-61
2022/10/03 14:31:16;;;;;;;0.63;0.50;;;24.20;36.70;;;;;;4988196;28;20205;-61
2022/10/03 14:34:09;;;;;;;0.70;0.67;;;24.20;37.70;;;;;;5016827;28;20189;-62
2022/10/03 14:37:14;;;;;;;1.47;0.60;;;24.30;36.30;;;;;;4988201;28;20237;-61
2022/10/03 14:39:49;;;;;;;0.53;0.53;;;24.30;36.40;;;;;;4979999;28;20200;-61
2022/10/03 14:42:47;;;;;;;2.37;0.63;;;24.50;35.40;;;;;;4980667;28;20177;-61
2022/10/03 14:45:17;;;;;;;1.83;0.97;;;24.90;34.40;;;;;;4989512;28;20184;-61